Time;durP1;ratioP1;P1;durP2;ratioP2;P2;SDS_P1;SDS_P2;PMS_P1;PMS_P2;Temp;Humidity;BMP_temperature;BMP_pressure;BME280_temperature;BME280_humidity;BME280_pressure;Samples;Min_cycle;Max_cycle;Signal;HPM_P1;HPM_P2
2022/07/07 00:02:18;;;;;;;11.25;5.97;;;;;;;23.30;56.64;101968.88;5068784;28;20187;-68
2022/07/07 00:04:44;;;;;;;9.75;6.15;;;;;;;22.65;58.34;101965.31;5070406;28;20043;-71
2022/07/07 00:07:10;;;;;;;10.02;6.78;;;;;;;23.11;57.01;101967.88;5076718;28;20028;-70
2022/07/07 00:09:35;;;;;;;12.43;6.80;;;;;;;23.71;55.25;101980.47;5067774;28;20052;-68
2022/07/07 00:12:01;;;;;;;9.85;7.45;;;;;;;23.03;57.91;101977.53;5067836;28;20495;-68
2022/07/07 00:14:27;;;;;;;11.68;8.35;;;;;;;23.31;57.01;101971.38;5067629;28;20300;-69
2022/07/07 00:16:53;;;;;;;11.68;9.10;;;;;;;23.80;55.44;101967.78;5068897;28;20392;-70
2022/07/07 00:19:19;;;;;;;13.35;9.65;;;;;;;23.06;57.88;101967.91;5068393;28;20040;-71
2022/07/07 00:21:44;;;;;;;15.13;9.68;;;;;;;22.87;59.14;101962.22;5066405;28;20245;-69
2022/07/07 00:24:09;;;;;;;13.13;9.38;;;;;;;23.64;56.69;101947.88;5067309;28;20036;-70
2022/07/07 00:26:35;;;;;;;18.70;11.32;;;;;;;22.84;58.74;101954.53;5067876;28;20412;-71
2022/07/07 00:29:02;;;;;;;16.20;10.65;;;;;;;23.40;57.37;101950.47;5067285;28;20032;-72
2022/07/07 00:31:28;;;;;;;14.45;10.13;;;;;;;23.21;57.68;101949.44;5066882;28;20029;-69
2022/07/07 00:33:53;;;;;;;14.80;10.75;;;;;;;23.29;58.35;101951.59;5067574;28;20397;-68
2022/07/07 00:36:19;;;;;;;16.45;9.68;;;;;;;23.21;58.94;101938.47;5067226;28;20395;-72
2022/07/07 00:38:44;;;;;;;16.38;10.48;;;;;;;22.63;60.10;101936.53;5067146;28;20501;-70
2022/07/07 00:41:10;;;;;;;18.55;11.30;;;;;;;23.29;59.16;101935.13;5067210;28;20543;-71
2022/07/07 00:43:37;;;;;;;17.70;11.90;;;;;;;23.49;58.60;101934.22;5066899;28;20029;-71
2022/07/07 00:46:04;;;;;;;22.00;12.48;;;;;;;23.27;58.99;101934.59;5067101;28;20396;-70
2022/07/07 00:48:32;;;;;;;16.67;12.40;;;;;;;23.44;59.06;101923.28;5067711;28;20032;-72
2022/07/07 00:50:58;;;;;;;20.65;12.95;;;;;;;23.19;59.44;101926.16;5066829;28;20518;-70
2022/07/07 00:53:24;;;;;;;17.40;11.80;;;;;;;22.90;60.35;101917.78;5066961;28;20037;-72
2022/07/07 00:55:49;;;;;;;18.05;11.18;;;;;;;23.16;59.31;101918.50;5066918;28;20024;-72
2022/07/07 00:58:15;;;;;;;18.08;11.15;;;;;;;22.84;61.19;101924.41;5086689;28;20059;-70
2022/07/07 01:00:41;;;;;;;17.30;11.70;;;;;;;23.14;59.58;101910.56;5067695;28;20040;-70
2022/07/07 01:03:08;;;;;;;11.88;9.20;;;;;;;22.94;60.08;101904.38;5081330;28;20024;-72
2022/07/07 01:05:36;;;;;;;15.43;10.35;;;;;;;23.47;58.32;101900.75;5066583;28;20040;-71
2022/07/07 01:08:03;;;;;;;20.75;9.02;;;;;;;22.99;59.65;101896.94;5066882;28;20044;-72
2022/07/07 01:10:29;;;;;;;10.93;7.72;;;;;;;22.46;62.09;101887.53;5066912;28;20062;-71
2022/07/07 01:12:55;;;;;;;13.48;8.18;;;;;;;22.86;60.80;101892.03;5066337;28;20561;-71
2022/07/07 01:15:20;;;;;;;10.55;7.93;;;;;;;22.26;61.78;101884.84;5067651;28;20097;-72
2022/07/07 01:17:47;;;;;;;18.90;8.50;;;;;;;22.82;60.80;101882.75;5069098;28;20079;-71
2022/07/07 01:20:13;;;;;;;11.55;8.65;;;;;;;22.74;60.89;101877.03;5066599;28;20051;-71
2022/07/07 01:22:45;;;;;;;12.45;8.10;;;;;;;23.11;59.43;101866.44;5067065;28;20048;-72
2022/07/07 01:25:11;;;;;;;14.25;7.30;;;;;;;23.22;59.66;101876.22;5067109;28;20403;-71
2022/07/07 01:27:36;;;;;;;9.18;7.00;;;;;;;23.09;59.97;101876.84;5067105;28;20028;-71
2022/07/07 01:30:02;;;;;;;13.70;8.13;;;;;;;22.92;59.70;101868.19;5067171;28;20557;-72
2022/07/07 01:32:27;;;;;;;10.70;7.10;;;;;;;23.19;59.93;101868.56;5066615;28;20312;-72
2022/07/07 01:34:53;;;;;;;11.40;6.85;;;;;;;23.28;59.46;101875.09;5070029;28;20036;-70
2022/07/07 01:37:24;;;;;;;14.50;7.82;;;;;;;22.67;60.91;101880.06;5070679;28;20040;-71
2022/07/07 01:39:50;;;;;;;12.85;7.03;;;;;;;22.87;60.56;101874.50;5070487;28;20650;-70
2022/07/07 01:42:16;;;;;;;8.35;6.03;;;;;;;23.00;60.13;101873.06;5070587;28;20033;-71
2022/07/07 01:44:42;;;;;;;9.40;5.43;;;;;;;23.30;58.79;101875.63;5071009;28;20051;-71
2022/07/07 01:47:09;;;;;;;7.95;4.88;;;;;;;22.94;59.99;101866.78;5070103;28;20055;-72
2022/07/07 01:49:34;;;;;;;6.38;3.42;;;;;;;22.19;61.75;101864.31;5070017;28;20135;-72
2022/07/07 01:52:00;;;;;;;9.93;2.80;;;;;;;22.16;61.51;101870.34;5070553;28;20090;-74
2022/07/07 01:54:29;;;;;;;3.10;2.13;;;;;;;21.87;62.39;101866.56;5070545;28;20060;-73
2022/07/07 01:56:55;;;;;;;5.40;2.53;;;;;;;21.68;63.19;101869.81;5069754;28;20032;-71
2022/07/07 01:59:21;;;;;;;8.77;2.72;;;;;;;21.75;63.29;101867.63;5070509;28;20136;-70
2022/07/07 02:01:46;;;;;;;6.03;2.95;;;;;;;22.06;63.22;101870.34;5078457;28;20020;-70
2022/07/07 02:04:11;;;;;;;7.15;3.20;;;;;;;21.82;62.94;101870.94;5090339;28;20040;-69
2022/07/07 02:06:38;;;;;;;3.80;2.47;;;;;;;21.40;64.86;101866.78;5085081;28;20028;-70
2022/07/07 02:09:04;;;;;;;7.25;3.17;;;;;;;21.67;64.00;101867.34;5069786;28;20555;-70
2022/07/07 02:11:30;;;;;;;7.15;3.13;;;;;;;21.72;63.77;101870.91;5070026;28;20043;-70
2022/07/07 02:13:55;;;;;;;5.13;2.60;;;;;;;21.81;63.23;101871.22;5070027;28;20044;-70
2022/07/07 02:16:23;;;;;;;4.13;2.53;;;;;;;22.10;62.69;101857.75;5069133;28;20494;-72
2022/07/07 02:18:53;;;;;;;6.13;2.75;;;;;;;21.69;64.34;101859.69;5072180;28;20048;-70
2022/07/07 02:21:20;;;;;;;6.55;2.95;;;;;;;21.80;63.38;101864.91;5070274;28;20024;-70
2022/07/07 02:23:47;;;;;;;11.80;3.22;;;;;;;22.39;62.04;101859.59;5069294;28;20031;-69
2022/07/07 02:26:12;;;;;;;6.75;3.28;;;;;;;21.83;64.03;101863.56;5069129;28;20118;-70
2022/07/07 02:28:39;;;;;;;5.55;3.03;;;;;;;21.97;64.07;101853.69;5069806;28;20086;-70
2022/07/07 02:31:05;;;;;;;5.07;3.17;;;;;;;21.93;63.97;101860.81;5069104;28;20041;-71
2022/07/07 02:33:31;;;;;;;6.50;3.60;;;;;;;22.21;63.17;101851.19;5069921;28;20029;-70
2022/07/07 02:35:57;;;;;;;8.45;4.05;;;;;;;22.61;61.93;101843.66;5069270;28;20036;-70
2022/07/07 02:38:23;;;;;;;4.32;3.58;;;;;;;22.21;62.97;101853.91;5068874;28;20037;-71
2022/07/07 02:40:50;;;;;;;11.88;4.00;;;;;;;22.13;63.50;101847.06;5069267;28;20120;-70
2022/07/07 02:43:15;;;;;;;5.32;4.22;;;;;;;21.78;64.13;101847.91;5069261;28;20033;-69
2022/07/07 02:45:41;;;;;;;12.27;4.38;;;;;;;21.94;63.94;101837.78;5068070;28;20040;-70
2022/07/07 02:48:08;;;;;;;5.05;3.92;;;;;;;22.51;62.18;101840.91;5069659;28;20029;-70
2022/07/07 02:50:35;;;;;;;5.55;3.55;;;;;;;22.44;63.05;101839.59;5069092;28;20511;-70
2022/07/07 02:53:01;;;;;;;5.75;4.30;;;;;;;22.44;62.50;101828.63;5068345;28;20094;-69
2022/07/07 02:55:27;;;;;;;6.32;4.30;;;;;;;22.11;63.70;101823.81;5069088;28;20040;-69
2022/07/07 02:57:52;;;;;;;5.93;4.25;;;;;;;22.02;63.71;101822.72;5068643;28;20174;-71
2022/07/07 03:00:17;;;;;;;6.75;4.22;;;;;;;22.32;63.08;101822.66;5069079;28;20028;-69
2022/07/07 03:02:43;;;;;;;6.85;4.15;;;;;;;22.53;62.67;101813.25;5066462;28;20376;-69
2022/07/07 03:05:10;;;;;;;6.28;4.50;;;;;;;22.03;63.51;101821.66;5088955;28;20075;-70
2022/07/07 03:07:36;;;;;;;8.90;4.63;;;;;;;21.90;64.32;101820.28;5074161;28;20029;-69
2022/07/07 03:10:03;;;;;;;8.32;3.85;;;;;;;22.32;63.41;101815.25;5068573;28;20337;-70
2022/07/07 03:12:28;;;;;;;5.20;3.58;;;;;;;22.18;62.96;101821.59;5068649;28;20514;-70
2022/07/07 03:14:54;;;;;;;6.78;4.18;;;;;;;22.24;63.19;101807.63;5068744;28;20048;-71
2022/07/07 03:17:19;;;;;;;6.88;4.38;;;;;;;21.98;64.30;101811.50;5052409;28;20037;-69
2022/07/07 03:19:44;;;;;;;5.63;4.40;;;;;;;22.22;63.91;101811.72;5068143;28;20047;-69
2022/07/07 03:22:10;;;;;;;8.50;4.97;;;;;;;22.05;64.04;101812.06;5068470;28;20385;-69
2022/07/07 03:24:35;;;;;;;6.20;5.22;;;;;;;21.80;64.51;101815.66;5068524;28;20047;-69
2022/07/07 03:27:02;;;;;;;10.07;5.00;;;;;;;21.88;64.59;101811.53;5068164;28;20483;-71
2022/07/07 03:29:28;;;;;;;7.43;4.80;;;;;;;22.28;63.35;101808.69;5068388;28;20288;-70
2022/07/07 03:31:53;;;;;;;8.73;4.80;;;;;;;22.21;63.06;101808.16;5067646;28;20033;-70
2022/07/07 03:34:19;;;;;;;12.27;5.28;;;;;;;22.06;63.82;101801.91;5067995;28;20045;-70
2022/07/07 03:36:44;;;;;;;6.78;5.47;;;;;;;22.65;62.47;101802.81;5068170;28;20043;-71
2022/07/07 03:39:09;;;;;;;8.88;4.63;;;;;;;21.92;64.23;101814.53;5068191;28;20048;-70
2022/07/07 03:41:35;;;;;;;8.75;4.78;;;;;;;22.52;62.34;101809.69;5068575;28;20032;-70
2022/07/07 03:44:00;;;;;;;8.52;4.65;;;;;;;22.59;62.52;101809.41;5067585;28;20052;-70
2022/07/07 03:46:26;;;;;;;11.27;4.53;;;;;;;22.35;63.04;101820.16;5068095;28;20730;-71
2022/07/07 03:48:51;;;;;;;9.23;4.10;;;;;;;21.92;64.47;101820.00;5072319;28;20024;-70
2022/07/07 03:51:17;;;;;;;7.88;3.22;;;;;;;21.91;64.09;101812.91;5087834;28;20032;-70
2022/07/07 03:53:42;;;;;;;4.68;3.15;;;;;;;22.21;63.35;101818.31;5068114;28;20488;-71
2022/07/07 03:56:07;;;;;;;6.72;2.38;;;;;;;22.10;63.33;101817.50;5067646;28;20082;-72
2022/07/07 03:58:33;;;;;;;10.75;2.28;;;;;;;22.27;62.62;101820.75;5049265;28;20036;-70
2022/07/07 04:00:59;;;;;;;7.72;2.47;;;;;;;21.84;64.50;101814.00;5067226;28;20040;-70
2022/07/07 04:03:25;;;;;;;6.35;1.90;;;;;;;21.76;64.22;101817.28;5046726;28;20085;-68
2022/07/07 04:05:51;;;;;;;7.05;2.45;;;;;;;22.02;63.80;101825.47;5067091;28;20037;-70
2022/07/07 04:08:16;;;;;;;11.90;2.40;;;;;;;21.46;65.34;101836.41;5067314;28;20251;-67
2022/07/07 04:10:42;;;;;;;12.70;2.42;;;;;;;21.06;67.12;101854.69;5067135;28;20071;-71
2022/07/07 04:13:07;;;;;;;8.82;1.90;;;;;;;20.69;68.16;101846.66;5067057;28;20377;-69
2022/07/07 04:15:34;;;;;;;4.22;1.65;;;;;;;21.13;66.61;101838.88;5067555;28;20040;-69
2022/07/07 04:18:02;;;;;;;8.15;1.50;;;;;;;20.69;67.15;101852.09;5066436;28;20032;-71
2022/07/07 04:20:29;;;;;;;9.20;1.30;;;;;;;20.90;67.01;101842.88;5072914;28;20044;-69
2022/07/07 04:22:54;;;;;;;6.78;1.30;;;;;;;21.01;66.88;101844.59;5068009;28;20044;-68
2022/07/07 04:25:20;;;;;;;8.80;1.95;;;;;;;21.06;66.27;101843.75;5066848;28;20035;-68
2022/07/07 04:27:45;;;;;;;12.10;2.65;;;;;;;21.14;66.46;101840.50;5049472;28;20373;-68
2022/07/07 04:30:11;;;;;;;8.50;1.75;;;;;;;20.95;67.50;101849.19;5067047;28;20039;-68
2022/07/07 04:32:37;;;;;;;7.05;1.73;;;;;;;20.73;68.57;101851.31;5066727;28;20032;-68
2022/07/07 04:35:02;;;;;;;8.13;1.45;;;;;;;20.69;67.74;101852.94;5067332;28;20101;-68
2022/07/07 04:37:28;;;;;;;12.27;2.45;;;;;;;20.65;68.32;101859.19;5066598;28;20052;-68
2022/07/07 04:39:53;;;;;;;10.30;1.70;;;;;;;20.31;68.29;101868.84;5067236;28;20036;-67
2022/07/07 04:42:19;;;;;;;8.65;1.35;;;;;;;20.87;66.91;101868.81;5067516;28;20546;-67
2022/07/07 04:44:44;;;;;;;4.32;1.75;;;;;;;20.80;66.76;101873.72;5066459;28;20106;-68
2022/07/07 04:47:09;;;;;;;9.75;1.50;;;;;;;20.85;66.24;101870.19;5067329;28;20036;-68
2022/07/07 04:49:35;;;;;;;7.95;1.83;;;;;;;20.95;66.37;101881.16;5077046;28;20035;-67
2022/07/07 04:52:00;;;;;;;10.40;2.10;;;;;;;20.64;66.37;101884.84;5087126;28;20032;-68
2022/07/07 04:54:25;;;;;;;10.43;2.60;;;;;;;20.67;66.54;101887.06;5088012;28;20024;-71
2022/07/07 04:56:51;;;;;;;7.63;1.42;;;;;;;20.38;67.72;101891.28;5086602;28;20063;-70
2022/07/07 04:59:16;;;;;;;12.57;1.50;;;;;;;20.69;66.27;101895.81;5087233;28;20094;-69
2022/07/07 05:01:42;;;;;;;6.70;1.30;;;;;;;21.18;65.30;101890.81;5078609;28;20028;-68
2022/07/07 05:04:07;;;;;;;11.75;2.83;;;;;;;21.21;64.89;101902.03;5067093;28;20044;-69
2022/07/07 05:06:33;;;;;;;10.30;2.58;;;;;;;20.57;66.44;101912.44;5067533;28;20645;-68
2022/07/07 05:08:58;;;;;;;15.68;3.10;;;;;;;20.09;67.30;101905.25;5068933;28;20033;-70
2022/07/07 05:11:24;;;;;;;7.93;1.27;;;;;;;20.53;66.45;101907.75;5071330;28;20547;-71
2022/07/07 05:13:49;;;;;;;17.70;2.35;;;;;;;20.45;66.55;101900.88;5070590;28;20052;-70
2022/07/07 05:16:14;;;;;;;12.90;2.35;;;;;;;20.37;66.55;101925.97;5081545;28;20081;-71
2022/07/07 05:18:40;;;;;;;7.95;1.90;;;;;;;20.85;64.49;101911.19;5076861;28;20028;-72
2022/07/07 05:21:05;;;;;;;8.80;2.25;;;;;;;20.35;66.08;101930.03;5070749;28;20036;-71
2022/07/07 05:23:31;;;;;;;7.43;1.60;;;;;;;19.92;66.90;101933.78;5070683;28;20047;-68
2022/07/07 05:25:56;;;;;;;8.05;2.00;;;;;;;20.79;64.72;101924.00;5071051;28;20059;-69
2022/07/07 05:28:22;;;;;;;12.07;1.55;;;;;;;19.83;65.75;101940.81;5071325;28;20021;-69
2022/07/07 05:30:47;;;;;;;13.25;2.45;;;;;;;20.20;65.37;101933.50;5071510;28;20071;-70
2022/07/07 05:33:13;;;;;;;7.60;1.80;;;;;;;20.40;65.04;101932.81;5070626;28;20036;-71
2022/07/07 05:35:38;;;;;;;12.13;2.47;;;;;;;20.43;64.48;101951.38;5070380;28;20503;-70
2022/07/07 05:38:04;;;;;;;11.38;1.60;;;;;;;20.47;64.45;101958.78;5068020;28;20056;-71
2022/07/07 05:40:29;;;;;;;13.98;2.05;;;;;;;20.17;65.57;101945.72;5067781;28;20045;-70
2022/07/07 05:42:55;;;;;;;14.00;2.55;;;;;;;20.51;64.81;101967.28;5070630;28;20074;-71
2022/07/07 05:45:20;;;;;;;14.65;3.22;;;;;;;19.83;66.93;101974.34;5070768;28;20024;-70
2022/07/07 05:47:46;;;;;;;13.85;2.40;;;;;;;19.53;68.04;101993.16;5069528;28;20064;-71
2022/07/07 05:50:11;;;;;;;10.07;1.73;;;;;;;19.65;68.07;101974.75;5066407;28;20056;-69
2022/07/07 05:52:37;;;;;;;13.73;2.17;;;;;;;20.41;65.10;101981.69;5067468;28;20077;-69
2022/07/07 05:55:03;;;;;;;14.43;3.05;;;;;;;20.15;66.04;101967.00;5066437;28;20074;-70
2022/07/07 05:57:28;;;;;;;14.20;1.95;;;;;;;20.12;65.30;101988.53;5069156;28;20028;-71
2022/07/07 05:59:54;;;;;;;15.23;2.15;;;;;;;20.04;65.72;101984.38;5069681;28;20069;-69
2022/07/07 06:02:19;;;;;;;11.10;1.77;;;;;;;20.08;64.93;101993.69;5082971;28;20504;-68
2022/07/07 06:04:45;;;;;;;9.57;2.17;;;;;;;20.19;64.77;101991.88;5089257;28;20047;-68
2022/07/07 06:07:10;;;;;;;12.30;2.63;;;;;;;19.96;65.76;101995.78;5072307;28;20047;-69
2022/07/07 06:09:36;;;;;;;12.88;2.13;;;;;;;20.57;64.20;102004.47;5069652;28;20036;-70
2022/07/07 06:12:01;;;;;;;5.40;1.35;;;;;;;20.32;64.81;101991.47;5068921;28;20040;-70
2022/07/07 06:14:28;;;;;;;7.93;1.60;;;;;;;20.29;65.03;102000.16;5065886;28;20045;-71
2022/07/07 06:16:53;;;;;;;6.63;1.98;;;;;;;20.37;64.67;102004.31;5069704;28;20040;-70
2022/07/07 06:19:19;;;;;;;12.85;1.98;;;;;;;20.61;64.82;102021.97;5067354;28;20045;-69
2022/07/07 06:21:45;;;;;;;16.42;1.73;;;;;;;20.60;65.16;102012.94;5049020;28;20056;-69
2022/07/07 06:24:11;;;;;;;13.70;1.80;;;;;;;20.17;65.09;102011.22;5065660;28;20036;-73
2022/07/07 06:26:36;;;;;;;12.80;1.80;;;;;;;20.55;64.65;102009.34;5066799;28;20043;-68
2022/07/07 06:29:03;;;;;;;11.65;1.60;;;;;;;20.42;64.53;101998.91;5070303;28;20045;-69
2022/07/07 06:31:28;;;;;;;8.32;1.17;;;;;;;20.35;64.63;102001.00;5068406;28;20028;-69
2022/07/07 06:33:54;;;;;;;6.30;1.05;;;;;;;21.11;63.29;102007.81;5068430;28;20466;-70
2022/07/07 06:36:19;;;;;;;9.07;1.92;;;;;;;20.37;64.86;102021.53;5050382;28;20082;-71
2022/07/07 06:38:44;;;;;;;6.22;1.52;;;;;;;20.27;64.82;102017.88;5067930;28;20043;-70
2022/07/07 06:41:10;;;;;;;6.53;2.00;;;;;;;20.29;63.40;102022.00;5068746;28;20044;-74
2022/07/07 06:43:35;;;;;;;6.25;1.00;;;;;;;20.79;63.32;102027.00;5068413;28;20373;-67
2022/07/07 06:46:01;;;;;;;4.22;1.23;;;;;;;20.88;61.82;102030.88;5068775;28;20060;-68
2022/07/07 06:48:26;;;;;;;5.45;0.70;;;;;;;21.05;62.13;102031.53;5070228;28;20043;-67
2022/07/07 06:50:52;;;;;;;6.32;0.60;;;;;;;20.91;62.38;102033.09;5080474;28;20037;-70
2022/07/07 06:53:17;;;;;;;8.85;1.38;;;;;;;20.65;62.25;102034.84;5084950;28;20032;-72
2022/07/07 06:55:43;;;;;;;5.68;1.50;;;;;;;20.51;62.77;102030.91;5071573;28;20044;-67
2022/07/07 06:58:08;;;;;;;6.32;1.45;;;;;;;21.04;61.62;102029.91;5061861;28;20075;-68
2022/07/07 07:00:34;;;;;;;5.43;0.82;;;;;;;21.12;61.14;102032.13;5065284;28;20036;-70
2022/07/07 07:03:00;;;;;;;2.67;0.52;;;;;;;20.90;62.46;102040.47;5062642;28;20037;-70
2022/07/07 07:05:26;;;;;;;5.40;0.75;;;;;;;21.28;61.37;102049.44;5067054;28;20028;-68
2022/07/07 07:07:52;;;;;;;4.28;0.55;;;;;;;20.79;61.95;102059.78;5066343;28;20028;-68
2022/07/07 07:10:17;;;;;;;4.75;0.55;;;;;;;20.44;63.04;102049.41;5066269;28;20072;-70
2022/07/07 07:12:43;;;;;;;3.67;0.90;;;;;;;20.90;62.12;102056.03;5066095;28;20052;-68
2022/07/07 07:15:10;;;;;;;4.93;0.88;;;;;;;20.93;62.33;102058.25;5067261;28;20617;-69
2022/07/07 07:17:36;;;;;;;4.22;0.70;;;;;;;21.04;61.64;102061.88;5066449;28;20044;-69
2022/07/07 07:20:01;;;;;;;13.05;2.78;;;;;;;21.33;60.17;102063.13;5064432;28;20056;-68
2022/07/07 07:22:27;;;;;;;8.35;1.33;;;;;;;20.88;62.09;102056.31;5066875;28;20538;-69
2022/07/07 07:24:52;;;;;;;4.70;0.98;;;;;;;21.88;59.63;102062.53;5048394;28;20029;-68
2022/07/07 07:27:17;;;;;;;2.85;1.10;;;;;;;22.09;58.33;102064.22;5066283;28;20055;-66
2022/07/07 07:29:43;;;;;;;3.33;0.90;;;;;;;22.39;59.16;102069.69;5065433;28;20033;-67
2022/07/07 07:32:08;;;;;;;2.45;0.85;;;;;;;22.15;58.42;102063.91;5066508;28;20151;-66
2022/07/07 07:34:34;;;;;;;5.32;1.13;;;;;;;22.03;59.08;102068.84;5065865;28;20056;-68
2022/07/07 07:37:02;;;;;;;4.38;0.93;;;;;;;21.40;61.53;102077.38;5065274;28;20044;-67
2022/07/07 07:39:27;;;;;;;2.50;0.55;;;;;;;21.87;59.58;102075.38;5066328;28;20147;-68
2022/07/07 07:41:53;;;;;;;5.43;0.88;;;;;;;21.67;60.34;102067.09;5065467;28;20041;-68
2022/07/07 07:47:03;;;;;;;4.30;0.80;;;;;;;21.35;61.70;102091.03;5065725;28;20163;-67
2022/07/07 07:49:28;;;;;;;2.35;0.45;;;;;;;21.19;61.50;102095.59;5064996;28;20053;-67
2022/07/07 07:51:53;;;;;;;4.38;0.68;;;;;;;20.72;63.21;102097.44;5065387;28;20067;-67
2022/07/07 07:54:19;;;;;;;1.77;0.82;;;;;;;20.76;63.41;102101.28;5047438;28;20043;-66
2022/07/07 07:56:44;;;;;;;7.75;1.33;;;;;;;20.11;64.19;102094.16;5061790;28;20040;-67
2022/07/07 07:59:10;;;;;;;3.55;0.80;;;;;;;20.87;62.11;102095.63;5061283;28;20435;-66
2022/07/07 08:01:35;;;;;;;4.65;0.90;;;;;;;21.21;61.47;102096.16;5066597;28;20527;-68
2022/07/07 08:04:01;;;;;;;6.07;1.23;;;;;;;21.50;60.91;102097.38;5065227;28;20044;-67
2022/07/07 08:06:27;;;;;;;4.63;1.08;;;;;;;22.01;59.19;102108.53;5065319;28;20085;-66
2022/07/07 08:08:52;;;;;;;8.27;2.17;;;;;;;21.46;59.04;102100.94;5064576;28;20048;-64
2022/07/07 08:11:18;;;;;;;4.78;0.95;;;;;;;21.33;60.03;102098.66;5065949;28;20109;-65
2022/07/07 08:13:43;;;;;;;4.82;0.90;;;;;;;21.68;59.09;102110.59;5064700;28;20083;-65
2022/07/07 08:16:09;;;;;;;8.55;0.98;;;;;;;22.13;57.86;102107.19;5065369;28;20048;-66
2022/07/07 08:18:34;;;;;;;4.55;1.10;;;;;;;22.14;58.23;102111.56;5065002;28;20036;-67
2022/07/07 08:20:59;;;;;;;6.00;1.52;;;;;;;22.97;55.88;102107.50;5064339;28;20036;-65
2022/07/07 08:23:25;;;;;;;8.32;1.30;;;;;;;22.90;56.18;102115.19;5067866;28;20032;-66
2022/07/07 08:25:51;;;;;;;11.77;1.02;;;;;;;22.32;57.93;102119.28;5065023;28;20032;-66
2022/07/07 08:28:16;;;;;;;6.28;1.13;;;;;;;21.62;61.22;102135.47;5065828;28;20034;-66
2022/07/07 08:30:42;;;;;;;2.85;1.02;;;;;;;22.19;59.76;102119.78;5064599;28;20027;-67
2022/07/07 08:33:07;;;;;;;6.70;0.98;;;;;;;21.76;60.06;102137.44;5065956;28;20025;-67
2022/07/07 08:35:33;;;;;;;8.10;1.27;;;;;;;21.73;60.15;102126.22;5066074;28;20500;-67
2022/07/07 08:37:58;;;;;;;4.97;1.15;;;;;;;21.98;59.25;102133.69;5064222;28;20078;-65
2022/07/07 08:40:24;;;;;;;5.47;0.80;;;;;;;21.93;59.06;102134.53;5065399;28;20511;-65
2022/07/07 08:42:50;;;;;;;6.30;1.33;;;;;;;22.28;57.85;102129.13;5065358;28;20064;-66
2022/07/07 08:45:15;;;;;;;4.57;1.27;;;;;;;21.90;57.59;102134.22;5065492;28;20538;-66
2022/07/07 08:47:42;;;;;;;10.73;1.23;;;;;;;21.95;57.53;102147.94;5066274;28;20488;-66
2022/07/07 08:50:07;;;;;;;4.88;0.90;;;;;;;21.88;57.99;102144.66;5065103;28;20051;-67
2022/07/07 08:52:33;;;;;;;3.55;0.80;;;;;;;21.99;56.45;102147.16;5064673;28;20466;-69
2022/07/07 08:55:02;;;;;;;5.47;1.08;;;;;;;22.24;55.93;102149.94;5065792;28;20496;-66
2022/07/07 08:57:27;;;;;;;5.00;0.75;;;;;;;23.10;54.39;102139.00;5065493;28;20040;-68
2022/07/07 08:59:56;;;;;;;7.72;1.08;;;;;;;23.12;53.63;102166.97;5064458;28;20041;-67
2022/07/07 09:02:23;;;;;;;5.95;1.00;;;;;;;22.00;58.58;102184.38;5068699;28;20044;-67
2022/07/07 09:04:50;;;;;;;2.90;0.60;;;;;;;21.86;57.96;102176.94;5065224;28;20072;-67
2022/07/07 09:07:15;;;;;;;1.98;0.70;;;;;;;21.59;58.84;102177.88;5062874;28;20117;-66
2022/07/07 09:09:41;;;;;;;3.03;1.05;;;;;;;20.93;61.16;102181.22;5064896;28;20492;-67
2022/07/07 09:12:08;;;;;;;4.43;0.90;;;;;;;21.73;58.62;102179.03;5064210;28;20038;-67
2022/07/07 09:14:40;;;;;;;5.68;0.85;;;;;;;21.50;59.54;102182.19;5064244;28;20036;-67
2022/07/07 09:17:35;;;;;;;3.83;0.85;;;;;;;22.22;57.69;102192.38;5064416;28;20032;-66
2022/07/07 09:20:11;;;;;;;4.55;0.90;;;;;;;21.63;59.79;102186.34;5063331;28;21203;-68
2022/07/07 09:22:51;;;;;;;4.20;0.98;;;;;;;21.96;58.25;102193.38;5064524;28;20318;-68
2022/07/07 09:25:19;;;;;;;7.55;1.05;;;;;;;23.63;54.97;102184.16;5064456;28;20680;-67
2022/07/07 09:27:51;;;;;;;3.15;0.88;;;;;;;23.24;56.94;102190.28;5064964;28;20426;-66
2022/07/07 09:30:29;;;;;;;3.90;0.85;;;;;;;22.83;55.56;102187.84;5065160;28;20032;-67
2022/07/07 09:32:54;;;;;;;2.67;0.80;;;;;;;22.33;57.02;102202.25;5061644;28;20457;-67
2022/07/07 09:38:14;;;;;;;4.10;1.20;;;;;;;21.75;59.63;102228.03;5063766;28;20059;-67
2022/07/07 09:40:53;;;;;;;5.30;1.10;;;;;;;21.29;60.80;102237.84;5064137;28;20531;-68
2022/07/07 09:43:20;;;;;;;7.40;1.33;;;;;;;21.77;60.52;102236.78;5062535;28;20627;-68
2022/07/07 09:46:04;;;;;;;8.60;0.75;;;;;;;22.12;59.93;102238.88;5063399;28;20116;-67
2022/07/07 09:48:29;;;;;;;1.92;0.50;;;;;;;22.04;59.41;102237.50;5062194;28;20116;-67
2022/07/07 09:51:38;;;;;;;2.72;1.08;;;;;;;22.69;57.65;102234.16;5062736;28;20029;-68
2022/07/07 09:54:08;;;;;;;2.88;0.82;;;;;;;22.46;58.62;102246.41;5002058;28;20048;-69
2022/07/07 09:56:35;;;;;;;2.92;0.95;;;;;;;22.49;58.27;102245.03;5001606;28;20038;-68
2022/07/07 09:59:04;;;;;;;6.03;1.08;;;;;;;23.45;56.70;102237.72;5000527;28;20048;-68
2022/07/07 10:01:32;;;;;;;10.07;1.35;;;;;;;23.97;54.52;102234.56;5007649;28;20065;-69
2022/07/07 10:04:03;;;;;;;3.75;1.02;;;;;;;23.92;53.98;102232.66;5004276;28;20628;-68
2022/07/07 10:06:31;;;;;;;2.10;0.75;;;;;;;23.42;55.43;102247.34;4993084;28;20069;-67
2022/07/07 10:09:18;;;;;;;3.35;1.42;;;;;;;23.30;56.20;102251.44;5003967;28;20421;-70
2022/07/07 10:11:46;;;;;;;5.25;1.38;;;;;;;22.46;57.25;102254.63;5001236;28;20043;-67
2022/07/07 10:14:20;;;;;;;4.25;1.33;;;;;;;23.44;54.89;102269.84;4999061;28;20453;-69
2022/07/07 10:16:53;;;;;;;2.97;1.23;;;;;;;23.33;55.41;102264.66;5000200;28;20041;-68
2022/07/07 10:19:25;;;;;;;5.30;1.30;;;;;;;22.97;54.94;102274.75;5003414;28;20203;-67
2022/07/07 10:21:55;;;;;;;5.97;1.63;;;;;;;23.53;54.45;102268.19;4988619;28;20583;-69
2022/07/07 10:24:23;;;;;;;6.22;1.50;;;;;;;23.41;54.34;102278.63;5005871;28;20042;-68
2022/07/07 10:26:51;;;;;;;7.28;1.67;;;;;;;22.97;55.26;102291.22;5003095;28;20464;-68
2022/07/07 10:29:17;;;;;;;12.82;1.67;;;;;;;22.92;56.11;102280.22;5000580;28;20092;-67
2022/07/07 10:31:52;;;;;;;6.05;1.20;;;;;;;23.13;55.40;102292.88;5066056;28;20127;-69
2022/07/07 10:34:17;;;;;;;6.40;1.63;;;;;;;22.85;55.83;102287.91;5065729;28;20451;-66
2022/07/07 10:36:45;;;;;;;2.70;0.90;;;;;;;22.60;56.88;102296.09;5062823;28;20017;-67
2022/07/07 10:39:12;;;;;;;1.30;0.70;;;;;;;22.09;57.63;102307.91;5066814;28;20048;-68
2022/07/07 10:41:52;;;;;;;2.05;1.02;;;;;;;22.16;56.97;102294.78;5067041;28;20045;-67
2022/07/07 10:44:19;;;;;;;2.28;1.00;;;;;;;22.60;55.10;102307.84;5065011;28;20064;-67
2022/07/07 10:46:57;;;;;;;4.00;1.30;;;;;;;23.31;53.56;102297.84;5065514;28;20431;-68
2022/07/07 10:49:37;;;;;;;1.88;0.93;;;;;;;23.65;52.67;102305.50;5063768;28;20036;-68
2022/07/07 10:52:09;;;;;;;5.78;1.20;;;;;;;24.13;51.31;102308.44;5064266;28;20040;-68
2022/07/07 10:54:36;;;;;;;4.75;0.93;;;;;;;23.75;52.48;102311.78;5066056;28;20040;-66
2022/07/07 10:57:01;;;;;;;5.35;1.48;;;;;;;22.89;55.27;102321.09;5062924;28;20032;-67
2022/07/07 10:59:28;;;;;;;2.45;0.93;;;;;;;23.14;56.15;102334.81;5066347;28;20587;-69
2022/07/07 11:02:02;;;;;;;3.08;1.02;;;;;;;22.99;56.23;102346.63;5046554;28;20496;-68
2022/07/07 11:04:43;;;;;;;4.63;1.02;;;;;;;22.40;57.93;102348.03;5064518;28;20369;-69
2022/07/07 11:07:14;;;;;;;2.47;0.73;;;;;;;22.35;57.34;102357.03;5058001;28;20044;-68
2022/07/07 11:10:06;;;;;;;2.45;1.13;;;;;;;22.88;56.67;102363.31;5065214;28;20503;-68
2022/07/07 11:12:44;;;;;;;17.30;2.05;;;;;;;22.02;57.72;102364.78;5062978;28;20047;-67
2022/07/07 11:15:18;;;;;;;6.72;1.50;;;;;;;22.38;56.69;102374.88;5063454;28;20048;-67
2022/07/07 11:17:53;;;;;;;6.88;1.40;;;;;;;23.26;54.94;102371.88;5062698;28;20360;-68
2022/07/07 11:20:32;;;;;;;3.35;1.48;;;;;;;23.09;55.15;102382.28;5059925;28;20492;-67
2022/07/07 11:23:10;;;;;;;5.03;1.70;;;;;;;22.48;56.33;102394.09;5062307;28;20137;-68
2022/07/07 11:25:38;;;;;;;7.15;1.50;;;;;;;22.76;54.55;102399.16;5063149;28;20560;-67
2022/07/07 11:28:04;;;;;;;7.80;1.27;;;;;;;22.50;56.33;102406.44;5060807;28;20037;-67